createdAt,value
2023-03-16T03:53:18.595Z,4.42
2023-03-16T05:04:27.100Z,4.23
2023-03-16T05:06:55.691Z,4.16
2023-03-16T05:09:28.006Z,4.12
2023-03-16T05:11:56.221Z,4.04
2023-03-16T05:14:27.068Z,3.97
2023-03-16T05:17:15.808Z,3.92
2023-03-16T05:19:44.346Z,3.86
2023-03-16T05:22:15.958Z,3.82
2023-03-16T05:25:03.521Z,3.77
2023-03-16T05:27:34.427Z,3.72
2023-03-16T05:30:04.133Z,3.67
2023-03-16T05:32:32.986Z,3.61
2023-03-16T05:35:23.046Z,3.56
2023-03-16T05:37:53.354Z,3.54
2023-03-16T05:40:23.381Z,3.52
2023-03-16T05:43:02.479Z,3.50
2023-03-16T05:45:35.025Z,3.54
2023-03-16T05:48:09.491Z,3.53
2023-03-16T05:50:42.245Z,3.56
2023-03-16T05:53:11.305Z,3.54
2023-03-16T05:55:39.822Z,3.52
2023-03-16T05:58:09.840Z,3.51
2023-03-16T06:00:45.906Z,3.49
2023-03-16T06:03:22.788Z,3.44
2023-03-16T06:05:54.547Z,3.45
2023-03-16T06:08:30.151Z,3.50
2023-03-16T06:11:26.293Z,3.52
2023-03-16T06:13:57.938Z,3.53
2023-03-16T06:16:26.577Z,3.51
2023-03-16T06:18:59.223Z,3.51
2023-03-16T06:21:28.670Z,3.53
2023-03-16T06:24:12.309Z,3.55
2023-03-16T06:26:49.004Z,3.57
2023-03-16T06:29:19.434Z,3.56
2023-03-16T06:31:48.006Z,3.59
2023-03-16T06:34:16.498Z,3.62
2023-03-16T06:36:47.035Z,3.62
2023-03-16T06:39:20.222Z,3.64
2023-03-16T06:41:52.251Z,3.66
2023-03-16T06:44:23.058Z,3.70
2023-03-16T06:47:00.705Z,3.75
2023-03-16T06:49:29.287Z,3.77
2023-03-16T06:51:59.464Z,3.76
2023-03-16T06:54:28.256Z,3.76
2023-03-16T06:56:58.360Z,3.74
2023-03-16T06:59:26.657Z,3.73
2023-03-16T07:01:55.831Z,3.73
2023-03-16T07:04:25.376Z,3.72
2023-03-16T07:06:53.949Z,3.70
2023-03-16T07:09:27.721Z,3.72
2023-03-16T07:12:18.223Z,3.72
2023-03-16T07:14:54.087Z,3.73
2023-03-16T07:17:27.016Z,3.76
2023-03-16T07:19:55.771Z,3.72
2023-03-16T07:22:30.071Z,3.67
2023-03-16T07:29:47.813Z,3.63
2023-03-16T07:32:16.426Z,3.61
2023-03-16T07:34:47.896Z,3.61
2023-03-16T07:37:21.787Z,3.66
2023-03-16T07:39:54.247Z,3.72
2023-03-16T07:42:22.852Z,3.73
2023-03-16T07:45:14.535Z,3.76
2023-03-16T07:47:45.806Z,3.75
2023-03-16T07:50:23.809Z,3.75
2023-03-16T07:52:54.544Z,3.79
2023-03-16T07:55:23.997Z,3.77
2023-03-16T07:57:52.843Z,3.76
2023-03-16T08:00:28.956Z,3.75
2023-03-16T08:02:59.110Z,3.77
2023-03-16T08:05:55.326Z,3.77
2023-03-16T08:08:27.288Z,3.77
2023-03-16T08:10:56.671Z,3.76
2023-03-16T08:13:32.312Z,3.74
2023-03-16T08:16:02.580Z,3.75
2023-03-16T08:18:35.792Z,3.76
2023-03-16T08:21:05.299Z,3.76
2023-03-16T08:23:34.039Z,3.77
2023-03-16T08:26:09.139Z,3.77
2023-03-16T08:28:37.879Z,3.76
2023-03-16T08:31:09.763Z,3.76
2023-03-16T08:33:47.019Z,3.74
2023-03-16T08:36:16.909Z,3.73
2023-03-16T08:39:06.183Z,3.72
2023-03-16T08:42:26.419Z,3.70
2023-03-16T08:45:12.316Z,3.71
2023-03-16T08:47:42.748Z,3.68
2023-03-16T08:50:15.760Z,3.67
2023-03-16T08:52:44.949Z,3.69
2023-03-16T08:55:33.267Z,3.74
2023-03-16T08:58:07.015Z,3.77
2023-03-16T09:00:37.062Z,3.72
2023-03-16T09:03:06.384Z,3.65
2023-03-16T09:05:35.513Z,3.68
2023-03-16T09:08:06.505Z,3.73
2023-03-16T09:10:39.818Z,3.79
2023-03-16T09:13:11.702Z,3.86
2023-03-16T09:15:41.492Z,3.95
2023-03-16T09:18:11.442Z,3.97
2023-03-16T09:20:39.995Z,3.97
2023-03-16T09:23:15.392Z,4.00
2023-03-16T09:25:46.683Z,4.03
2023-03-16T09:28:21.678Z,4.04
2023-03-16T09:30:55.410Z,3.95
2023-03-16T09:33:25.145Z,3.87
2023-03-16T09:35:56.057Z,3.84
2023-03-16T09:38:26.771Z,3.86
2023-03-16T09:41:06.950Z,3.87
2023-03-16T09:44:13.710Z,3.85
2023-03-16T09:47:03.299Z,3.82
2023-03-16T09:49:38.200Z,3.78
2023-03-16T09:52:51.916Z,3.80
2023-03-16T09:55:38.121Z,3.83
2023-03-16T09:58:15.838Z,3.85
2023-03-16T10:00:54.460Z,3.89
2023-03-16T10:04:08.205Z,3.90
2023-03-16T10:07:07.191Z,3.89
2023-03-16T10:09:57.817Z,3.92
2023-03-16T10:12:44.255Z,3.96
2023-03-16T10:15:16.642Z,4.01
2023-03-16T10:18:13.539Z,4.02
2023-03-16T10:20:48.347Z,4.04
2023-03-16T10:23:21.631Z,4.04
2023-03-16T10:25:52.577Z,4.03
2023-03-16T10:28:28.866Z,4.04
2023-03-16T10:31:23.932Z,4.04
2023-03-16T10:33:58.622Z,4.11
2023-03-16T10:36:50.157Z,4.16
2023-03-16T10:39:21.409Z,4.14
2023-03-16T10:41:57.389Z,4.13
2023-03-16T10:44:28.798Z,4.14
2023-03-16T10:47:25.785Z,4.14
2023-03-16T10:49:58.254Z,4.17
2023-03-16T10:52:34.696Z,4.15
2023-03-16T10:55:30.468Z,4.12
2023-03-16T10:58:01.588Z,4.14
2023-03-16T11:00:35.501Z,4.14
2023-03-16T11:03:28.929Z,4.17
2023-03-16T11:06:03.012Z,4.21
2023-03-16T11:08:47.958Z,4.17
2023-03-16T11:11:50.956Z,4.10
2023-03-16T11:14:22.858Z,4.07
2023-03-16T11:17:12.575Z,4.09
2023-03-16T11:20:07.563Z,4.16
2023-03-16T11:22:38.520Z,4.20
2023-03-16T11:25:48.637Z,4.26
2023-03-16T11:28:39.782Z,4.25
2023-03-16T11:31:17.426Z,4.26
2023-03-16T11:33:47.813Z,4.31
2023-03-16T11:36:36.033Z,4.34
2023-03-16T11:39:36.298Z,4.36
2023-03-16T11:42:28.115Z,4.38
2023-03-16T11:45:20.560Z,4.42
2023-03-16T11:48:16.959Z,4.47
2023-03-16T11:51:10.659Z,4.50
2023-03-16T11:53:52.074Z,4.52
2023-03-16T11:56:43.965Z,4.53
2023-03-16T11:59:31.105Z,4.53
2023-03-16T12:02:26.980Z,4.54
2023-03-16T12:05:04.494Z,4.51
2023-03-16T12:08:08.233Z,4.40
2023-03-16T12:11:02.836Z,4.30
2023-03-16T12:13:35.764Z,4.28
2023-03-16T12:16:31.029Z,4.30
2023-03-16T12:19:47.281Z,4.39
2023-03-16T12:22:20.043Z,4.44
2023-03-16T12:24:51.475Z,4.41
2023-03-16T12:27:40.057Z,4.36
2023-03-16T12:30:44.631Z,4.35
2023-03-16T12:33:35.306Z,4.39
2023-03-16T12:36:18.209Z,4.40
2023-03-16T12:39:09.963Z,4.41
2023-03-16T12:42:29.664Z,4.41
2023-03-16T12:45:13.761Z,4.45
2023-03-16T12:48:00.529Z,4.49
2023-03-16T12:50:28.914Z,4.47
2023-03-16T12:52:57.901Z,4.51
2023-03-16T12:55:41.119Z,4.53
2023-03-16T12:58:13.414Z,4.51
2023-03-16T13:00:42.971Z,4.48
2023-03-16T13:03:15.605Z,4.45
2023-03-16T13:09:11.369Z,4.38
2023-03-16T13:12:07.696Z,4.36
2023-03-16T13:14:44.380Z,4.34
2023-03-16T13:17:19.215Z,4.39
2023-03-16T13:20:21.067Z,4.46
2023-03-16T13:23:23.460Z,4.54
2023-03-16T13:26:11.150Z,4.54
2023-03-16T13:28:40.269Z,4.52
2023-03-16T13:31:27.720Z,4.50
2023-03-16T13:33:57.006Z,4.50
2023-03-16T13:36:44.526Z,4.50
2023-03-16T13:39:22.858Z,4.51
2023-03-16T13:42:14.895Z,4.49
2023-03-16T13:44:47.202Z,4.52
2023-03-16T13:47:20.297Z,4.54
2023-03-16T13:50:11.636Z,4.54
2023-03-16T13:53:04.195Z,4.49
2023-03-16T13:55:35.950Z,4.46
2023-03-16T13:58:04.635Z,4.43
2023-03-16T14:00:39.759Z,4.39
2023-03-16T14:03:38.165Z,4.38
2023-03-16T14:06:11.201Z,4.35
2023-03-16T14:09:01.813Z,4.36
2023-03-16T14:11:33.624Z,4.36
2023-03-16T14:14:16.121Z,4.36
2023-03-16T14:16:44.876Z,4.35
2023-03-16T14:19:25.926Z,4.34
2023-03-16T14:21:56.079Z,4.30
2023-03-16T14:24:31.146Z,4.23
2023-03-16T14:27:18.344Z,4.15
2023-03-16T14:29:54.742Z,4.14
2023-03-16T14:32:32.064Z,4.17
2023-03-16T14:35:12.988Z,4.20
2023-03-16T14:37:42.114Z,4.27
2023-03-16T14:40:26.076Z,4.32
2023-03-16T14:42:55.917Z,4.33
2023-03-16T14:45:38.782Z,4.30
2023-03-16T14:48:21.246Z,4.26
2023-03-16T14:50:58.826Z,4.26
2023-03-16T14:53:29.338Z,4.23
2023-03-16T14:55:58.289Z,4.20
2023-03-16T14:58:28.805Z,4.20
2023-03-16T15:00:58.043Z,4.23
2023-03-16T15:03:33.040Z,4.28
2023-03-16T15:06:01.817Z,4.31
2023-03-16T15:08:32.331Z,4.33
2023-03-16T15:11:05.028Z,4.33
2023-03-16T15:13:53.456Z,4.28
2023-03-16T15:16:23.636Z,4.25
2023-03-16T15:18:52.061Z,4.20
2023-03-16T15:21:24.902Z,4.15
2023-03-16T15:23:54.793Z,4.12
2023-03-16T15:26:26.336Z,4.10
2023-03-16T15:28:57.654Z,4.07
2023-03-16T15:31:26.565Z,4.08
2023-03-16T15:33:55.118Z,4.07
2023-03-16T15:36:25.247Z,4.04
2023-03-16T15:38:55.814Z,4.00
2023-03-16T15:41:30.099Z,3.96
2023-03-16T15:44:09.316Z,3.95
2023-03-16T15:46:39.430Z,3.94
2023-03-16T15:49:08.440Z,3.95
2023-03-16T15:51:38.449Z,3.96
2023-03-16T15:54:08.573Z,3.97
2023-03-16T15:56:52.880Z,3.98
2023-03-16T15:59:27.230Z,4.01
2023-03-16T16:01:57.761Z,4.01
2023-03-16T16:04:26.471Z,4.01
2023-03-16T16:06:55.595Z,4.00
2023-03-16T16:09:25.045Z,4.00
2023-03-16T16:11:54.094Z,3.96
2023-03-16T16:14:29.619Z,3.96
2023-03-16T16:16:58.402Z,3.96
2023-03-16T16:19:27.136Z,3.98
2023-03-16T16:21:57.447Z,3.98
2023-03-16T16:24:26.102Z,3.98
2023-03-16T16:26:55.751Z,3.98
2023-03-16T16:29:27.424Z,4.00
2023-03-16T16:31:56.946Z,4.01
2023-03-16T16:34:25.831Z,4.05
2023-03-16T16:36:55.743Z,4.09
2023-03-16T16:39:24.007Z,4.13
2023-03-16T16:41:58.093Z,4.15
2023-03-16T16:44:28.163Z,4.16
2023-03-16T16:46:59.887Z,4.17
2023-03-16T16:49:30.779Z,4.14
2023-03-16T16:52:13.034Z,4.13
2023-03-16T16:54:41.644Z,4.14
2023-03-16T16:57:19.837Z,4.17
2023-03-16T16:59:51.204Z,4.21
2023-03-16T17:02:32.540Z,4.25
2023-03-16T17:05:00.757Z,4.27
2023-03-16T17:07:29.533Z,4.27
2023-03-16T17:09:59.134Z,4.26
2023-03-16T17:12:29.764Z,4.23
2023-03-16T17:14:58.028Z,4.19
2023-03-16T17:17:28.973Z,4.12
2023-03-16T17:19:57.558Z,4.09
2023-03-16T17:22:26.600Z,4.08
2023-03-16T17:24:56.559Z,4.04
2023-03-16T17:27:29.842Z,4.04
2023-03-16T17:29:58.869Z,4.06
2023-03-16T17:32:27.461Z,4.08
2023-03-16T17:34:56.012Z,4.05
2023-03-16T17:37:24.287Z,4.01
2023-03-16T17:39:54.214Z,3.98
2023-03-16T17:42:27.740Z,3.91
2023-03-16T17:44:56.507Z,3.87
2023-03-16T17:47:26.600Z,3.81
2023-03-16T17:49:58.215Z,3.77
2023-03-16T17:58:39.071Z,3.69
2023-03-16T18:01:07.551Z,3.63
2023-03-16T18:03:37.093Z,3.60
2023-03-16T18:06:07.000Z,3.59
2023-03-16T18:08:36.271Z,3.58
2023-03-16T18:11:07.415Z,3.52
2023-03-16T18:13:37.500Z,3.48
2023-03-16T18:16:07.311Z,3.48
2023-03-16T18:18:40.031Z,3.47
2023-03-16T18:21:19.609Z,3.47
2023-03-16T18:23:48.007Z,3.50
2023-03-16T18:26:19.255Z,3.52
2023-03-16T18:28:48.642Z,3.54
2023-03-16T18:31:25.971Z,3.52
2023-03-16T18:34:04.096Z,3.50
2023-03-16T18:36:35.341Z,3.47
2023-03-16T18:39:15.395Z,3.43
2023-03-16T18:41:47.140Z,3.37
2023-03-16T18:44:30.059Z,3.27
2023-03-16T18:47:00.950Z,3.23
2023-03-16T18:49:35.006Z,3.16
2023-03-16T18:52:03.981Z,3.14
2023-03-16T18:54:35.491Z,3.14
2023-03-16T18:57:16.648Z,3.15
2023-03-16T18:59:45.832Z,3.12
2023-03-16T19:02:28.703Z,3.07
2023-03-16T19:04:58.318Z,3.06
2023-03-16T19:07:33.960Z,3.03
2023-03-16T19:10:24.585Z,2.98
2023-03-16T19:12:53.811Z,2.98
2023-03-16T19:15:27.960Z,2.95
2023-03-16T19:17:57.343Z,2.94
2023-03-16T19:20:31.473Z,2.93
2023-03-16T19:23:03.196Z,2.96
2023-03-16T19:25:36.682Z,2.95
2023-03-16T19:28:06.635Z,2.94
2023-03-16T19:30:35.286Z,2.93
2023-03-16T19:33:03.873Z,2.87
2023-03-16T19:35:50.707Z,2.81
2023-03-16T19:38:22.316Z,2.76
2023-03-16T19:40:56.518Z,2.72
2023-03-16T19:43:25.017Z,2.69
2023-03-16T19:45:55.081Z,2.67
2023-03-16T19:48:32.350Z,2.65
2023-03-16T19:51:01.320Z,2.65
2023-03-16T19:53:29.961Z,2.64
2023-03-16T19:55:58.479Z,2.63
2023-03-16T19:58:39.467Z,2.59
2023-03-16T20:01:19.248Z,2.53
2023-03-16T20:03:48.595Z,2.48
2023-03-16T20:06:21.741Z,2.47
2023-03-16T20:08:51.059Z,2.45
2023-03-16T20:11:32.382Z,2.42
2023-03-16T20:14:01.364Z,2.42
2023-03-16T20:16:32.324Z,2.42
2023-03-16T20:19:03.188Z,2.41
2023-03-16T20:21:31.731Z,2.41
2023-03-16T20:24:00.003Z,2.37
2023-03-16T20:26:32.487Z,2.30
2023-03-16T20:29:00.968Z,2.22
2023-03-16T20:31:34.743Z,2.15
2023-03-16T20:34:04.052Z,2.10
2023-03-16T20:36:32.633Z,2.03
2023-03-16T20:39:03.483Z,1.99
2023-03-16T20:41:36.458Z,2.00
2023-03-16T20:44:05.079Z,2.03
2023-03-16T20:46:35.900Z,2.00
2023-03-16T20:49:05.836Z,1.96
2023-03-16T20:51:35.975Z,1.93
2023-03-16T20:54:04.617Z,1.90
2023-03-16T20:56:32.971Z,1.84
2023-03-16T20:59:02.492Z,1.79
2023-03-16T21:01:32.232Z,1.74
2023-03-16T21:04:04.764Z,1.71
2023-03-16T21:06:33.971Z,1.68
2023-03-16T21:09:03.678Z,1.67
2023-03-16T21:11:36.846Z,1.71
2023-03-16T21:14:07.205Z,1.74
2023-03-16T21:16:35.462Z,1.73
2023-03-16T21:19:03.636Z,1.70
2023-03-16T21:21:31.910Z,1.66
2023-03-16T21:24:05.017Z,1.60
2023-03-16T21:26:34.130Z,1.57
2023-03-16T21:29:06.776Z,1.57
2023-03-16T21:31:37.249Z,1.61
2023-03-16T21:34:14.287Z,1.64
2023-03-16T21:36:44.451Z,1.67
2023-03-16T21:39:18.732Z,1.67
2023-03-16T21:41:50.167Z,1.69
2023-03-16T21:44:22.853Z,1.70
2023-03-16T21:46:51.598Z,1.69
2023-03-16T21:49:20.016Z,1.67
2023-03-16T21:51:50.453Z,1.64
2023-03-16T21:54:19.554Z,1.63
2023-03-16T21:56:48.815Z,1.63
2023-03-16T21:59:17.410Z,1.65
2023-03-16T22:02:01.082Z,1.66
2023-03-16T22:04:30.126Z,1.68
2023-03-16T22:06:58.347Z,1.69
2023-03-16T22:09:30.301Z,1.70
2023-03-16T22:11:59.574Z,1.70
2023-03-16T22:14:34.434Z,1.69
2023-03-16T22:17:04.124Z,1.70
2023-03-16T22:19:33.723Z,1.69
2023-03-16T22:22:03.773Z,1.67
2023-03-16T22:24:37.056Z,1.66
2023-03-16T22:27:11.246Z,1.67
2023-03-16T22:29:44.448Z,1.67
2023-03-16T22:32:16.975Z,1.65
2023-03-16T22:34:49.701Z,1.63
2023-03-16T22:37:23.200Z,1.63
2023-03-16T22:39:51.634Z,1.62
2023-03-16T22:42:37.150Z,1.60
2023-03-16T22:45:14.629Z,1.53
2023-03-16T22:47:50.709Z,1.46
2023-03-16T22:50:20.928Z,1.43
2023-03-16T22:52:50.464Z,1.39
2023-03-16T22:55:21.718Z,1.34
2023-03-16T22:58:04.805Z,1.32
2023-03-16T23:00:33.393Z,1.33
2023-03-16T23:03:02.480Z,1.34
2023-03-16T23:05:33.431Z,1.33
2023-03-16T23:08:02.785Z,1.29
2023-03-16T23:10:31.432Z,1.28
2023-03-16T23:13:00.810Z,1.28
2023-03-16T23:15:30.870Z,1.30
2023-03-16T23:17:59.855Z,1.32
2023-03-16T23:20:31.934Z,1.31
2023-03-16T23:23:01.292Z,1.30
2023-03-16T23:25:29.689Z,1.27
2023-03-16T23:27:58.559Z,1.26
2023-03-16T23:30:27.562Z,1.23
2023-03-16T23:33:01.399Z,1.19
2023-03-16T23:35:31.098Z,1.19
2023-03-16T23:37:59.499Z,1.21
2023-03-16T23:40:28.979Z,1.22
2023-03-16T23:42:58.790Z,1.21
2023-03-16T23:45:34.708Z,1.15
2023-03-16T23:48:05.911Z,1.03
2023-03-16T23:50:35.966Z,0.97
2023-03-16T23:53:04.185Z,0.98
2023-03-16T23:55:35.383Z,1.00
2023-03-16T23:58:04.046Z,1.03
